Time;durP1;ratioP1;P1;durP2;ratioP2;P2;SDS_P1;SDS_P2;PMS_P1;PMS_P2;Temp;Humidity;BMP_temperature;BMP_pressure;BME280_temperature;BME280_humidity;BME280_pressure;Samples;Min_cycle;Max_cycle;Signal;HPM_P1;HPM_P2
2022/04/11 00:01:36;;;;;;;5.75;3.92;;;;;;;;;;5052472;28;20086;-68
2022/04/11 00:04:02;;;;;;;6.35;3.90;;;;;;;;;;5052711;28;20036;-68
2022/04/11 00:06:28;;;;;;;6.75;3.78;;;;;;;;;;5052274;28;20058;-68
2022/04/11 00:08:54;;;;;;;6.65;4.03;;;;;;;;;;5052524;28;20075;-68
2022/04/11 00:11:20;;;;;;;8.07;4.35;;;;;;;;;;5052399;28;20040;-68
2022/04/11 00:13:47;;;;;;;8.50;4.47;;;;;;;;;;5052606;28;20051;-68
2022/04/11 00:16:13;;;;;;;7.55;4.10;;;;;;;;;;5052207;28;20111;-67
2022/04/11 00:18:39;;;;;;;6.30;4.00;;;;;;;;;;5052170;28;20040;-68
2022/04/11 00:21:06;;;;;;;7.05;3.55;;;;;;;;;;5052318;28;20029;-69
2022/04/11 00:23:32;;;;;;;6.85;4.20;;;;;;;;;;5052466;28;20067;-66
2022/04/11 00:25:58;;;;;;;8.80;4.50;;;;;;;;;;5052078;28;20503;-66
2022/04/11 00:28:24;;;;;;;6.97;4.22;;;;;;;;;;5052227;28;20067;-66
2022/04/11 00:30:50;;;;;;;5.65;4.18;;;;;;;;;;5051950;28;20021;-67
2022/04/11 00:33:16;;;;;;;8.38;4.15;;;;;;;;;;5052271;28;20032;-67
2022/04/11 00:35:43;;;;;;;8.23;4.32;;;;;;;;;;5052000;28;20025;-68
2022/04/11 00:38:09;;;;;;;8.25;4.68;;;;;;;;;;5052263;28;20510;-70
2022/04/11 00:40:35;;;;;;;7.95;4.43;;;;;;;;;;5052050;28;20017;-67
2022/04/11 00:43:01;;;;;;;7.22;4.63;;;;;;;;;;5052234;28;20078;-68
2022/04/11 00:45:27;;;;;;;7.20;4.50;;;;;;;;;;5052076;28;20112;-69
2022/04/11 00:47:53;;;;;;;7.28;4.15;;;;;;;;;;5051929;28;20033;-68
2022/04/11 00:50:19;;;;;;;6.55;4.22;;;;;;;;;;5051937;28;20028;-68
2022/04/11 00:52:48;;;;;;;7.60;4.40;;;;;;;;;;5050462;28;20082;-68
2022/04/11 00:55:14;;;;;;;8.57;4.57;;;;;;;;;;5051775;28;20382;-67
2022/04/11 00:57:40;;;;;;;7.40;4.45;;;;;;;;;;5051802;28;20040;-68
2022/04/11 01:00:08;;;;;;;7.88;4.95;;;;;;;;;;5051393;28;20025;-69
2022/04/11 01:02:34;;;;;;;6.78;4.78;;;;;;;;;;5051282;28;20032;-67
2022/04/11 01:05:00;;;;;;;8.68;4.80;;;;;;;;;;5051832;28;20017;-68
2022/04/11 01:07:27;;;;;;;10.27;4.82;;;;;;;;;;5051471;28;20082;-67
2022/04/11 01:09:53;;;;;;;9.07;5.10;;;;;;;;;;5051330;28;20108;-68
2022/04/11 01:12:21;;;;;;;7.00;4.47;;;;;;;;;;5051298;28;20036;-69
2022/04/11 01:14:47;;;;;;;7.07;4.70;;;;;;;;;;5051371;28;20021;-68
2022/04/11 01:17:13;;;;;;;8.73;4.40;;;;;;;;;;5050793;28;20061;-68
2022/04/11 01:19:39;;;;;;;9.05;4.95;;;;;;;;;;5051225;28;20033;-67
2022/04/11 01:22:05;;;;;;;7.35;4.68;;;;;;;;;;5051204;28;20036;-69
2022/04/11 01:24:31;;;;;;;7.00;4.65;;;;;;;;;;5051203;28;20025;-68
2022/04/11 01:26:57;;;;;;;9.27;5.00;;;;;;;;;;5050939;28;20099;-67
2022/04/11 01:29:24;;;;;;;6.70;4.70;;;;;;;;;;5051230;28;20025;-67
2022/04/11 01:31:50;;;;;;;8.38;5.25;;;;;;;;;;5050751;28;20432;-67
2022/04/11 01:34:16;;;;;;;8.00;4.68;;;;;;;;;;5050883;28;20100;-67
2022/04/11 01:36:42;;;;;;;7.50;4.72;;;;;;;;;;5050982;28;20543;-68
2022/04/11 01:39:08;;;;;;;7.88;4.60;;;;;;;;;;5051003;28;20495;-67
2022/04/11 01:41:34;;;;;;;6.63;4.75;;;;;;;;;;5050769;28;20032;-68
2022/04/11 01:44:00;;;;;;;7.60;5.20;;;;;;;;;;5051006;28;20025;-68
2022/04/11 01:46:26;;;;;;;8.50;5.05;;;;;;;;;;5051016;28;20514;-69
2022/04/11 01:48:53;;;;;;;6.88;4.90;;;;;;;;;;5050982;28;20013;-69
2022/04/11 01:51:19;;;;;;;7.30;4.47;;;;;;;;;;5050743;28;20469;-68
2022/04/11 01:53:45;;;;;;;8.88;5.18;;;;;;;;;;5050916;28;20033;-66
2022/04/11 01:56:11;;;;;;;8.50;4.90;;;;;;;;;;5050570;28;20381;-67
2022/04/11 01:58:37;;;;;;;8.35;5.18;;;;;;;;;;5050799;28;20024;-67
2022/04/11 02:01:03;;;;;;;7.90;5.15;;;;;;;;;;5051265;28;20476;-68
2022/04/11 02:03:30;;;;;;;7.53;5.13;;;;;;;;;;5052518;28;20389;-66
2022/04/11 02:05:56;;;;;;;8.10;4.75;;;;;;;;;;5051966;28;20108;-66
2022/04/11 02:08:22;;;;;;;8.05;5.40;;;;;;;;;;5050779;28;20020;-67
2022/04/11 02:10:48;;;;;;;9.05;5.53;;;;;;;;;;5049267;28;20028;-67
2022/04/11 02:13:14;;;;;;;9.23;5.45;;;;;;;;;;5053562;28;20029;-67
2022/04/11 02:15:40;;;;;;;7.35;4.75;;;;;;;;;;5054899;28;20032;-67
2022/04/11 02:18:06;;;;;;;7.45;4.85;;;;;;;;;;5054414;28;20029;-66
2022/04/11 02:20:33;;;;;;;10.40;5.00;;;;;;;;;;5054764;28;20033;-66
2022/04/11 02:22:59;;;;;;;9.80;5.22;;;;;;;;;;5054638;28;20033;-66
2022/04/11 02:25:26;;;;;;;8.65;4.78;;;;;;;;;;5054468;28;20075;-67
2022/04/11 02:27:59;;;;;;;7.47;4.32;;;;;;;;;;5054432;28;20029;-66
2022/04/11 02:30:26;;;;;;;11.27;4.63;;;;;;;;;;5054532;28;20481;-67
2022/04/11 02:32:53;;;;;;;6.88;4.35;;;;;;;;;;5052967;28;20079;-66
2022/04/11 02:35:19;;;;;;;8.60;4.25;;;;;;;;;;5054395;28;20135;-67
2022/04/11 02:37:46;;;;;;;7.03;4.40;;;;;;;;;;5054360;28;20041;-68
2022/04/11 02:40:13;;;;;;;10.77;4.03;;;;;;;;;;5054121;28;20025;-67
2022/04/11 02:42:41;;;;;;;6.50;4.22;;;;;;;;;;5054147;28;20056;-67
2022/04/11 02:45:08;;;;;;;10.48;4.15;;;;;;;;;;5054142;28;20025;-67
2022/04/11 02:47:34;;;;;;;6.75;4.22;;;;;;;;;;5053700;28;20067;-68
2022/04/11 02:50:00;;;;;;;7.28;4.05;;;;;;;;;;5054109;28;20036;-66
2022/04/11 02:52:28;;;;;;;6.85;3.90;;;;;;;;;;5053824;28;20112;-67
2022/04/11 02:54:55;;;;;;;7.10;4.05;;;;;;;;;;5053489;28;20082;-67
2022/04/11 02:57:22;;;;;;;5.75;3.88;;;;;;;;;;5053736;28;20032;-67
2022/04/11 02:59:48;;;;;;;8.40;4.30;;;;;;;;;;5053672;28;20017;-67
2022/04/11 03:02:15;;;;;;;7.65;3.85;;;;;;;;;;5053709;28;20033;-68
2022/04/11 03:04:41;;;;;;;7.10;4.30;;;;;;;;;;5053638;28;20461;-68
2022/04/11 03:07:07;;;;;;;6.35;4.20;;;;;;;;;;5053642;28;20607;-68
2022/04/11 03:09:33;;;;;;;8.60;4.10;;;;;;;;;;5053775;28;20029;-68
2022/04/11 03:11:59;;;;;;;11.95;4.70;;;;;;;;;;5053483;28;20103;-68
2022/04/11 03:14:25;;;;;;;8.05;4.60;;;;;;;;;;5053646;28;20027;-67
2022/04/11 03:16:52;;;;;;;8.38;4.53;;;;;;;;;;5053441;28;20124;-67
2022/04/11 03:19:18;;;;;;;7.25;4.22;;;;;;;;;;5052207;28;20424;-69
2022/04/11 03:21:44;;;;;;;11.13;4.78;;;;;;;;;;5053463;28;20091;-67
2022/04/11 03:24:10;;;;;;;9.25;5.00;;;;;;;;;;5052435;28;20021;-67
2022/04/11 03:26:36;;;;;;;6.25;4.35;;;;;;;;;;5053275;28;20121;-67
2022/04/11 03:29:02;;;;;;;8.02;4.75;;;;;;;;;;5053592;28;20021;-67
2022/04/11 03:31:28;;;;;;;7.75;5.05;;;;;;;;;;5053474;28;20025;-68
2022/04/11 03:33:54;;;;;;;8.15;5.57;;;;;;;;;;5053192;28;20017;-68
2022/04/11 03:36:21;;;;;;;9.65;5.70;;;;;;;;;;5053302;28;20029;-68
2022/04/11 03:38:47;;;;;;;13.70;7.70;;;;;;;;;;5053243;28;20021;-68
2022/04/11 03:41:13;;;;;;;9.48;6.15;;;;;;;;;;5053232;28;20104;-67
2022/04/11 03:43:39;;;;;;;9.02;5.53;;;;;;;;;;5053429;28;20037;-67
2022/04/11 03:46:05;;;;;;;9.18;5.30;;;;;;;;;;5053055;28;20097;-67
2022/04/11 03:48:31;;;;;;;9.93;5.85;;;;;;;;;;5052999;28;20029;-67
2022/04/11 03:50:57;;;;;;;9.30;5.43;;;;;;;;;;5053123;28;20021;-66
2022/04/11 03:53:23;;;;;;;7.68;5.30;;;;;;;;;;5053057;28;20081;-66
2022/04/11 03:55:49;;;;;;;11.40;6.10;;;;;;;;;;5052772;28;20084;-66
2022/04/11 03:58:16;;;;;;;9.95;5.75;;;;;;;;;;5052715;28;20029;-67
2022/04/11 04:00:42;;;;;;;11.68;5.70;;;;;;;;;;5052906;28;20151;-67
2022/04/11 04:03:09;;;;;;;10.07;5.30;;;;;;;;;;5052702;28;20146;-67
2022/04/11 04:05:45;;;;;;;11.90;6.15;;;;;;;;;;5052611;28;20052;-67
2022/04/11 04:08:12;;;;;;;10.43;6.00;;;;;;;;;;5052559;28;20777;-67
2022/04/11 04:10:40;;;;;;;11.73;6.03;;;;;;;;;;5052119;28;20354;-68
2022/04/11 04:13:06;;;;;;;8.82;5.25;;;;;;;;;;5052273;28;20028;-67
2022/04/11 04:15:32;;;;;;;7.68;5.30;;;;;;;;;;5051994;28;20060;-67
2022/04/11 04:17:58;;;;;;;8.70;5.20;;;;;;;;;;5052243;28;20017;-66
2022/04/11 04:20:26;;;;;;;10.85;5.70;;;;;;;;;;5052147;28;20028;-67
2022/04/11 04:22:54;;;;;;;9.85;5.97;;;;;;;;;;5052287;28;20021;-67
2022/04/11 04:25:20;;;;;;;8.43;4.85;;;;;;;;;;5052078;28;20451;-67
2022/04/11 04:27:46;;;;;;;9.38;4.97;;;;;;;;;;5052290;28;20388;-68
2022/04/11 04:30:13;;;;;;;10.52;5.43;;;;;;;;;;5052082;28;20025;-67
2022/04/11 04:32:39;;;;;;;10.10;5.88;;;;;;;;;;5051974;28;20032;-67
2022/04/11 04:35:06;;;;;;;9.55;5.25;;;;;;;;;;5051554;28;20025;-67
2022/04/11 04:37:32;;;;;;;10.85;5.60;;;;;;;;;;5051452;28;20499;-67
2022/04/11 04:39:58;;;;;;;8.02;5.22;;;;;;;;;;5052014;28;20120;-67
2022/04/11 04:42:27;;;;;;;8.60;5.18;;;;;;;;;;5052055;28;20432;-67
2022/04/11 04:44:53;;;;;;;9.38;4.78;;;;;;;;;;5051997;28;20057;-67
2022/04/11 04:47:20;;;;;;;8.95;4.43;;;;;;;;;;5051677;28;20083;-68
2022/04/11 04:49:46;;;;;;;7.80;4.72;;;;;;;;;;5051849;28;20032;-67
2022/04/11 04:52:12;;;;;;;9.15;4.65;;;;;;;;;;5051689;28;20033;-68
2022/04/11 04:54:38;;;;;;;9.70;5.22;;;;;;;;;;5051549;28;20032;-68
2022/04/11 04:57:05;;;;;;;9.23;4.65;;;;;;;;;;5051529;28;20095;-67
2022/04/11 04:59:31;;;;;;;7.20;4.22;;;;;;;;;;5051791;28;20094;-67
2022/04/11 05:01:57;;;;;;;9.75;4.85;;;;;;;;;;5051588;28;20033;-67
2022/04/11 05:04:23;;;;;;;8.50;4.50;;;;;;;;;;5051567;28;20029;-68
2022/04/11 05:06:49;;;;;;;8.27;4.72;;;;;;;;;;5051781;28;20362;-68
2022/04/11 05:09:16;;;;;;;8.40;4.72;;;;;;;;;;5051566;28;20074;-67
2022/04/11 05:11:42;;;;;;;6.60;4.40;;;;;;;;;;5051470;28;20029;-68
2022/04/11 05:14:08;;;;;;;10.35;4.75;;;;;;;;;;5051437;28;20033;-67
2022/04/11 05:16:34;;;;;;;7.43;4.47;;;;;;;;;;5051248;28;20032;-68
2022/04/11 05:19:00;;;;;;;7.55;4.75;;;;;;;;;;5051033;28;20040;-67
2022/04/11 05:21:26;;;;;;;11.02;4.90;;;;;;;;;;5044809;28;20025;-67
2022/04/11 05:23:52;;;;;;;8.38;4.85;;;;;;;;;;5038897;28;20024;-68
2022/04/11 05:26:18;;;;;;;9.38;4.88;;;;;;;;;;5040984;28;20381;-68
2022/04/11 05:28:45;;;;;;;9.63;5.68;;;;;;;;;;5039597;28;20053;-68
2022/04/11 05:31:11;;;;;;;6.68;4.10;;;;;;;;;;5039060;28;20392;-66
2022/04/11 05:33:37;;;;;;;8.50;4.50;;;;;;;;;;5040510;28;20056;-66
2022/04/11 05:36:03;;;;;;;8.85;4.43;;;;;;;;;;5038826;28;20100;-66
2022/04/11 05:38:29;;;;;;;17.20;10.18;;;;;;;;;;5039279;28;20025;-69
2022/04/11 05:40:59;;;;;;;21.40;13.65;;;;;;;;;;5040302;28;20024;-69
2022/04/11 05:43:25;;;;;;;11.40;6.20;;;;;;;;;;5039324;28;20028;-69
2022/04/11 05:45:51;;;;;;;8.27;4.93;;;;;;;;;;5038835;28;20021;-68
2022/04/11 05:48:17;;;;;;;10.55;4.50;;;;;;;;;;5040177;28;20049;-69
2022/04/11 05:50:43;;;;;;;10.80;5.90;;;;;;;;;;5039002;28;20013;-70
2022/04/11 05:53:09;;;;;;;10.45;6.18;;;;;;;;;;5038992;28;20028;-70
2022/04/11 05:55:35;;;;;;;12.45;5.40;;;;;;;;;;5040172;28;20053;-70
2022/04/11 05:58:03;;;;;;;7.60;3.88;;;;;;;;;;5038872;28;20046;-70
2022/04/11 06:00:29;;;;;;;17.88;11.40;;;;;;;;;;5038798;28;20025;-67
2022/04/11 06:02:55;;;;;;;10.85;5.15;;;;;;;;;;5040046;28;20052;-69
2022/04/11 06:05:21;;;;;;;7.80;4.75;;;;;;;;;;5038221;28;20021;-69
2022/04/11 06:07:47;;;;;;;12.30;7.60;;;;;;;;;;5039429;28;20400;-67
2022/04/11 06:10:13;;;;;;;9.65;5.15;;;;;;;;;;5038859;28;20409;-67
2022/04/11 06:12:39;;;;;;;8.82;4.97;;;;;;;;;;5038207;28;20072;-69
2022/04/11 06:15:06;;;;;;;12.30;5.53;;;;;;;;;;5039458;28;20017;-68
2022/04/11 06:17:32;;;;;;;16.40;9.50;;;;;;;;;;5039712;28;20104;-68
2022/04/11 06:19:59;;;;;;;16.75;10.05;;;;;;;;;;5038562;28;20100;-68
2022/04/11 06:22:25;;;;;;;7.55;4.97;;;;;;;;;;5039752;28;20028;-66
2022/04/11 06:24:52;;;;;;;12.18;6.55;;;;;;;;;;5039794;28;20375;-66
2022/04/11 06:27:18;;;;;;;8.57;5.20;;;;;;;;;;5038336;28;20039;-66
2022/04/11 06:29:44;;;;;;;8.38;5.40;;;;;;;;;;5038930;28;20022;-68
2022/04/11 06:32:10;;;;;;;11.05;5.63;;;;;;;;;;5038121;28;20021;-68
2022/04/11 06:34:37;;;;;;;8.18;4.60;;;;;;;;;;5039552;28;20032;-66
2022/04/11 06:37:04;;;;;;;11.00;4.97;;;;;;;;;;5038827;28;20060;-67
2022/04/11 06:39:30;;;;;;;10.73;6.32;;;;;;;;;;5037925;28;20109;-70
2022/04/11 06:41:56;;;;;;;8.60;4.97;;;;;;;;;;5039664;28;20033;-68
2022/04/11 06:44:22;;;;;;;11.57;5.07;;;;;;;;;;5038698;28;20018;-69
2022/04/11 06:46:49;;;;;;;11.55;5.63;;;;;;;;;;5038020;28;20048;-68
2022/04/11 06:49:15;;;;;;;12.27;5.47;;;;;;;;;;5039929;28;20025;-67
2022/04/11 06:51:41;;;;;;;10.18;5.38;;;;;;;;;;5034515;28;20480;-69
2022/04/11 06:54:07;;;;;;;13.27;5.78;;;;;;;;;;5030305;28;20033;-67
2022/04/11 06:56:33;;;;;;;12.55;5.70;;;;;;;;;;5029717;28;20079;-68
2022/04/11 06:58:59;;;;;;;9.38;5.07;;;;;;;;;;5030495;28;20046;-66
2022/04/11 07:01:25;;;;;;;8.10;4.60;;;;;;;;;;5033708;28;20029;-68
2022/04/11 07:03:52;;;;;;;11.77;5.05;;;;;;;;;;5033251;28;20358;-66
2022/04/11 07:06:18;;;;;;;11.95;5.60;;;;;;;;;;5033181;28;20535;-68
2022/04/11 07:08:44;;;;;;;9.13;3.78;;;;;;;;;;5033500;28;20037;-66
2022/04/11 07:11:11;;;;;;;6.30;3.10;;;;;;;;;;5033532;28;20408;-69
2022/04/11 07:13:37;;;;;;;7.15;3.20;;;;;;;;;;5033687;28;20155;-67
2022/04/11 07:16:03;;;;;;;5.88;3.17;;;;;;;;;;5033333;28;20037;-68
2022/04/11 07:18:29;;;;;;;3.50;1.70;;;;;;;;;;5033045;28;20040;-69
2022/04/11 07:20:55;;;;;;;4.60;2.90;;;;;;;;;;5033062;28;20026;-68
2022/04/11 07:23:21;;;;;;;6.72;3.80;;;;;;;;;;5032594;28;20032;-66
2022/04/11 07:25:48;;;;;;;5.82;3.10;;;;;;;;;;5033044;28;20045;-66
2022/04/11 07:28:14;;;;;;;5.80;3.30;;;;;;;;;;5033271;28;20430;-68
2022/04/11 07:30:40;;;;;;;7.30;3.17;;;;;;;;;;5032551;28;20121;-68
2022/04/11 07:33:06;;;;;;;10.02;3.30;;;;;;;;;;5030807;28;20342;-66
2022/04/11 07:35:32;;;;;;;5.00;3.17;;;;;;;;;;5032775;28;20071;-64
2022/04/11 07:38:00;;;;;;;6.82;3.58;;;;;;;;;;5030950;28;20077;-64
2022/04/11 07:40:26;;;;;;;5.47;3.25;;;;;;;;;;5032342;28;20461;-69
2022/04/11 07:42:53;;;;;;;6.97;3.60;;;;;;;;;;5032154;28;20022;-69
2022/04/11 07:45:19;;;;;;;7.57;3.95;;;;;;;;;;5032312;28;20025;-70
2022/04/11 07:47:45;;;;;;;6.82;3.05;;;;;;;;;;5033075;28;20025;-69
2022/04/11 07:50:11;;;;;;;6.03;3.25;;;;;;;;;;5032655;28;20029;-68
2022/04/11 07:52:38;;;;;;;13.90;4.45;;;;;;;;;;5033012;28;20052;-68
2022/04/11 07:55:05;;;;;;;8.75;4.05;;;;;;;;;;5032280;28;20099;-69
2022/04/11 07:57:31;;;;;;;7.55;3.85;;;;;;;;;;5032268;28;20040;-65
2022/04/11 07:59:57;;;;;;;8.80;4.50;;;;;;;;;;5032343;28;20025;-68
2022/04/11 08:02:27;;;;;;;9.55;4.38;;;;;;;;;;5039418;28;20033;-64
2022/04/11 08:04:54;;;;;;;7.30;3.58;;;;;;;;;;5042598;28;20029;-65
2022/04/11 08:07:20;;;;;;;9.85;5.20;;;;;;;;;;5032604;28;20037;-64
2022/04/11 08:09:46;;;;;;;7.00;4.18;;;;;;;;;;5032134;28;20617;-64
2022/04/11 08:12:12;;;;;;;7.05;3.72;;;;;;;;;;5034447;28;20522;-64
2022/04/11 08:14:38;;;;;;;8.63;3.85;;;;;;;;;;5041673;28;20025;-64
2022/04/11 08:17:04;;;;;;;8.07;3.65;;;;;;;;;;5046432;28;20074;-64
2022/04/11 08:19:30;;;;;;;6.78;3.60;;;;;;;;;;5045440;28;20436;-64
2022/04/11 08:21:57;;;;;;;7.72;3.80;;;;;;;;;;5044745;28;20123;-65
2022/04/11 08:24:23;;;;;;;7.32;3.90;;;;;;;;;;5043652;28;20057;-64
2022/04/11 08:26:49;;;;;;;8.30;4.13;;;;;;;;;;5040301;28;20082;-64
2022/04/11 08:29:17;;;;;;;4.95;3.15;;;;;;;;;;5039757;28;20028;-63
2022/04/11 08:31:43;;;;;;;6.43;3.20;;;;;;;;;;5039944;28;20484;-63
2022/04/11 08:34:09;;;;;;;6.80;3.50;;;;;;;;;;5038036;28;20036;-64
2022/04/11 08:36:35;;;;;;;5.82;2.95;;;;;;;;;;5040854;28;20025;-62
2022/04/11 08:39:02;;;;;;;8.57;3.88;;;;;;;;;;5040411;28;20494;-62
2022/04/11 08:41:35;;;;;;;9.82;4.22;;;;;;;;;;5039805;28;20701;-60
2022/04/11 08:44:04;;;;;;;6.88;3.30;;;;;;;;;;5051232;28;20044;-60
2022/04/11 08:46:31;;;;;;;5.32;3.20;;;;;;;;;;5051741;28;20078;-60
2022/04/11 08:48:58;;;;;;;5.22;2.92;;;;;;;;;;5051029;28;20025;-60
2022/04/11 08:51:25;;;;;;;5.75;3.10;;;;;;;;;;5051786;28;20099;-62
2022/04/11 08:53:51;;;;;;;5.38;2.58;;;;;;;;;;5051482;28;20021;-62
2022/04/11 08:56:17;;;;;;;5.90;2.83;;;;;;;;;;5044664;28;20045;-60
2022/04/11 08:58:43;;;;;;;4.40;2.78;;;;;;;;;;5051418;28;20415;-60
2022/04/11 09:01:09;;;;;;;4.45;3.08;;;;;;;;;;5048079;28;20118;-59
2022/04/11 09:03:35;;;;;;;9.43;3.58;;;;;;;;;;5038958;28;20342;-63
2022/04/11 09:06:06;;;;;;;5.85;2.90;;;;;;;;;;5041426;28;20040;-63
2022/04/11 09:08:38;;;;;;;6.75;3.33;;;;;;;;;;5039890;28;20579;-62
2022/04/11 09:11:04;;;;;;;8.75;3.42;;;;;;;;;;5038795;28;20025;-61
2022/04/11 09:13:46;;;;;;;5.72;3.38;;;;;;;;;;5040816;28;20049;-60
2022/04/11 09:16:12;;;;;;;7.75;3.60;;;;;;;;;;5039377;28;20033;-62
2022/04/11 09:18:54;;;;;;;6.78;3.28;;;;;;;;;;5038736;28;20025;-61
2022/04/11 09:21:21;;;;;;;9.73;4.00;;;;;;;;;;5040439;28;20741;-61
2022/04/11 09:23:47;;;;;;;7.03;3.20;;;;;;;;;;5038331;28;20017;-61
2022/04/11 09:26:23;;;;;;;6.32;3.70;;;;;;;;;;5039629;28;20381;-61
2022/04/11 09:29:18;;;;;;;7.22;3.45;;;;;;;;;;5038808;28;20032;-63
2022/04/11 09:31:45;;;;;;;8.27;3.60;;;;;;;;;;5035205;28;20374;-60
2022/04/11 09:34:15;;;;;;;7.13;2.80;;;;;;;;;;5036923;28;20033;-61
2022/04/11 09:36:51;;;;;;;4.65;2.72;;;;;;;;;;5037882;28;20045;-61
2022/04/11 09:39:20;;;;;;;7.82;3.40;;;;;;;;;;5036850;28;20025;-61
2022/04/11 09:41:47;;;;;;;6.68;3.35;;;;;;;;;;5035840;28;20117;-61
2022/04/11 09:44:39;;;;;;;6.55;2.83;;;;;;;;;;5036648;28;20163;-62
2022/04/11 09:47:05;;;;;;;5.53;2.80;;;;;;;;;;5035254;28;20088;-62
2022/04/11 09:49:32;;;;;;;6.78;3.40;;;;;;;;;;5037121;28;20041;-60
2022/04/11 09:52:01;;;;;;;5.93;3.22;;;;;;;;;;5036586;28;20059;-61
2022/04/11 09:54:27;;;;;;;6.20;2.65;;;;;;;;;;5037791;28;20488;-60
2022/04/11 09:56:54;;;;;;;7.47;3.08;;;;;;;;;;5036247;28;20591;-60
2022/04/11 09:59:23;;;;;;;5.72;3.15;;;;;;;;;;5036183;28;20029;-62
2022/04/11 10:01:51;;;;;;;5.38;3.30;;;;;;;;;;5038719;28;20069;-61
2022/04/11 10:04:20;;;;;;;6.32;3.53;;;;;;;;;;5035688;28;20116;-62
2022/04/11 10:06:46;;;;;;;3.95;2.35;;;;;;;;;;5027365;28;20040;-61
2022/04/11 10:09:16;;;;;;;5.95;3.45;;;;;;;;;;5044778;28;20366;-60
2022/04/11 10:11:43;;;;;;;6.95;3.30;;;;;;;;;;5043464;28;20033;-60
2022/04/11 10:14:13;;;;;;;6.05;2.85;;;;;;;;;;5048997;28;20021;-62
2022/04/11 10:16:43;;;;;;;5.03;3.33;;;;;;;;;;5050001;28;20059;-60
2022/04/11 10:19:10;;;;;;;6.15;2.95;;;;;;;;;;5050034;28;20021;-63
2022/04/11 10:21:40;;;;;;;3.90;2.42;;;;;;;;;;5050266;28;20032;-61
2022/04/11 10:24:07;;;;;;;5.28;3.60;;;;;;;;;;5050146;28;20419;-61
2022/04/11 10:26:45;;;;;;;7.60;3.40;;;;;;;;;;5049552;28;20056;-60
2022/04/11 10:29:40;;;;;;;5.75;3.30;;;;;;;;;;5050221;28;20033;-63
2022/04/11 10:32:09;;;;;;;5.28;3.22;;;;;;;;;;5047426;28;20029;-60
2022/04/11 10:34:55;;;;;;;5.97;3.05;;;;;;;;;;5050552;28;20033;-61
2022/04/11 10:37:22;;;;;;;5.07;3.08;;;;;;;;;;5051720;28;20044;-61
2022/04/11 10:39:49;;;;;;;6.57;3.75;;;;;;;;;;5051559;28;20614;-61
2022/04/11 10:42:15;;;;;;;8.27;3.10;;;;;;;;;;5051199;28;20045;-60
2022/04/11 10:44:53;;;;;;;6.72;3.75;;;;;;;;;;5051207;28;20617;-62
2022/04/11 10:47:26;;;;;;;4.10;3.38;;;;;;;;;;5051612;28;20033;-65
2022/04/11 10:49:55;;;;;;;8.02;3.60;;;;;;;;;;5050763;28;20037;-63
2022/04/11 10:52:38;;;;;;;7.70;3.90;;;;;;;;;;5051124;28;20436;-61
2022/04/11 10:55:04;;;;;;;6.43;4.05;;;;;;;;;;5051026;28;20033;-60
2022/04/11 10:57:37;;;;;;;11.15;4.43;;;;;;;;;;5051059;28;20080;-62
2022/04/11 11:00:08;;;;;;;6.97;4.13;;;;;;;;;;5051062;28;20043;-60
2022/04/11 11:02:46;;;;;;;7.07;4.20;;;;;;;;;;5051208;28;20581;-60
2022/04/11 11:05:31;;;;;;;8.27;4.30;;;;;;;;;;5050955;28;20116;-62
2022/04/11 11:08:09;;;;;;;7.55;4.18;;;;;;;;;;5051919;28;20055;-62
2022/04/11 11:10:40;;;;;;;6.13;3.75;;;;;;;;;;5053330;28;20040;-60
2022/04/11 11:13:32;;;;;;;6.97;3.47;;;;;;;;;;5053682;28;20025;-60
2022/04/11 11:15:58;;;;;;;5.03;3.17;;;;;;;;;;5053297;28;20086;-60
2022/04/11 11:18:24;;;;;;;6.95;3.53;;;;;;;;;;5053205;28;20491;-59
2022/04/11 11:20:54;;;;;;;8.95;3.80;;;;;;;;;;5044075;28;20033;-61
2022/04/11 11:23:26;;;;;;;13.90;3.75;;;;;;;;;;5041121;28;20021;-62
2022/04/11 11:25:53;;;;;;;4.90;3.50;;;;;;;;;;5052733;28;20021;-62
2022/04/11 11:28:19;;;;;;;8.32;4.00;;;;;;;;;;5052803;28;20041;-62
2022/04/11 11:30:46;;;;;;;10.05;3.15;;;;;;;;;;5052972;28;20511;-61
2022/04/11 11:33:13;;;;;;;7.80;3.55;;;;;;;;;;5053103;28;20029;-61
2022/04/11 11:35:46;;;;;;;7.78;4.07;;;;;;;;;;5052903;28;20025;-61
2022/04/11 11:38:13;;;;;;;6.90;3.53;;;;;;;;;;5052460;28;20407;-61
2022/04/11 11:40:43;;;;;;;6.20;3.08;;;;;;;;;;5052425;28;20025;-61
2022/04/11 11:43:13;;;;;;;7.20;4.00;;;;;;;;;;5052496;28;20029;-61
2022/04/11 11:45:41;;;;;;;9.60;4.20;;;;;;;;;;5052026;28;20017;-61
2022/04/11 11:48:20;;;;;;;7.35;2.58;;;;;;;;;;5052785;28;20505;-61
2022/04/11 11:50:47;;;;;;;6.13;2.95;;;;;;;;;;5052321;28;20040;-60
2022/04/11 11:53:13;;;;;;;6.75;3.00;;;;;;;;;;5052479;28;20017;-61
2022/04/11 11:56:08;;;;;;;4.60;2.75;;;;;;;;;;5052391;28;20126;-62
2022/04/11 11:58:38;;;;;;;7.13;2.67;;;;;;;;;;5052388;28;20083;-61
2022/04/11 12:01:05;;;;;;;6.20;2.88;;;;;;;;;;5052998;28;20025;-61
2022/04/11 12:06:23;;;;;;;7.95;2.75;;;;;;;;;;5052581;28;20048;-63
2022/04/11 12:08:56;;;;;;;5.60;2.80;;;;;;;;;;5052114;28;20036;-61
2022/04/11 12:11:24;;;;;;;6.63;2.70;;;;;;;;;;5052189;28;20036;-61
2022/04/11 12:13:50;;;;;;;5.38;2.50;;;;;;;;;;5052106;28;20028;-62
2022/04/11 12:16:17;;;;;;;6.57;2.65;;;;;;;;;;5052081;28;20080;-62
2022/04/11 12:19:03;;;;;;;6.32;3.17;;;;;;;;;;5051591;28;20025;-67
2022/04/11 12:21:29;;;;;;;7.10;3.30;;;;;;;;;;5051966;28;20047;-62
2022/04/11 12:23:55;;;;;;;7.00;3.50;;;;;;;;;;5052226;28;20033;-62
2022/04/11 12:26:35;;;;;;;5.95;2.90;;;;;;;;;;5052189;28;20802;-63
2022/04/11 12:29:02;;;;;;;8.40;3.45;;;;;;;;;;5052087;28;20025;-63
2022/04/11 12:31:28;;;;;;;6.90;2.92;;;;;;;;;;5051524;28;20040;-63
2022/04/11 12:33:54;;;;;;;8.68;2.78;;;;;;;;;;5051287;28;20028;-63
2022/04/11 12:36:26;;;;;;;6.65;2.60;;;;;;;;;;5051780;28;20136;-62
2022/04/11 12:38:57;;;;;;;6.18;3.08;;;;;;;;;;5051745;28;20472;-63
2022/04/11 12:41:30;;;;;;;8.20;3.58;;;;;;;;;;5051685;28;20159;-63
2022/04/11 12:44:00;;;;;;;7.70;2.95;;;;;;;;;;5051589;28;20095;-63
2022/04/11 12:46:26;;;;;;;5.20;2.38;;;;;;;;;;5051217;28;20021;-63
2022/04/11 12:48:58;;;;;;;5.90;2.75;;;;;;;;;;5051310;28;20029;-63
2022/04/11 12:51:27;;;;;;;5.90;2.28;;;;;;;;;;5051503;28;20048;-63
2022/04/11 12:54:00;;;;;;;3.88;2.42;;;;;;;;;;5051444;28;20425;-61
2022/04/11 12:56:32;;;;;;;5.97;3.15;;;;;;;;;;5050150;28;20136;-62
2022/04/11 12:58:58;;;;;;;;;;;;;;;;;;5051728;28;20465;-61
2022/04/11 13:01:24;;;;;;;7.00;2.55;;;;;;;;;;5051270;28;19909;-61
2022/04/11 13:03:50;;;;;;;3.65;2.22;;;;;;;;;;5051559;28;20496;-64
2022/04/11 13:06:16;;;;;;;5.65;2.15;;;;;;;;;;5050955;28;20035;-62
2022/04/11 13:08:42;;;;;;;4.05;2.15;;;;;;;;;;5051048;28;20060;-62
2022/04/11 13:11:08;;;;;;;4.65;2.50;;;;;;;;;;5050993;28;20025;-63
2022/04/11 13:13:35;;;;;;;5.63;2.70;;;;;;;;;;5051020;28;20071;-63
2022/04/11 13:18:46;;;;;;;6.90;2.92;;;;;;;;;;5051495;28;20071;-62
2022/04/11 13:21:13;;;;;;;3.92;2.30;;;;;;;;;;5051097;28;20029;-62
2022/04/11 13:23:39;;;;;;;5.55;2.42;;;;;;;;;;5050418;28;20029;-63
2022/04/11 13:26:05;;;;;;;5.38;2.00;;;;;;;;;;5050651;28;20029;-63
2022/04/11 13:28:31;;;;;;;8.00;3.00;;;;;;;;;;5050794;28;20048;-62
2022/04/11 13:30:58;;;;;;;5.35;2.13;;;;;;;;;;5050925;28;20032;-61
2022/04/11 13:33:24;;;;;;;8.57;2.72;;;;;;;;;;5050442;28;20021;-64
2022/04/11 13:35:50;;;;;;;6.38;2.45;;;;;;;;;;5050416;28;20025;-63
2022/04/11 13:38:16;;;;;;;6.72;2.55;;;;;;;;;;5050236;28;20400;-62
2022/04/11 13:40:42;;;;;;;5.38;2.45;;;;;;;;;;5050532;28;20069;-65
2022/04/11 13:43:09;;;;;;;5.05;2.30;;;;;;;;;;5048680;28;20384;-62
2022/04/11 13:45:35;;;;;;;7.93;2.30;;;;;;;;;;5039924;28;20526;-62
2022/04/11 13:48:02;;;;;;;4.65;1.60;;;;;;;;;;5038253;28;20381;-64
2022/04/11 13:50:28;;;;;;;4.53;1.95;;;;;;;;;;5050490;28;20063;-63
2022/04/11 13:52:55;;;;;;;7.75;2.33;;;;;;;;;;5043517;28;20029;-62
2022/04/11 13:55:21;;;;;;;9.07;2.40;;;;;;;;;;5032549;28;20520;-63
2022/04/11 13:57:47;;;;;;;7.85;3.20;;;;;;;;;;5028894;28;20685;-63
2022/04/11 14:00:13;;;;;;;4.60;2.10;;;;;;;;;;5030223;28;20158;-63
2022/04/11 14:02:39;;;;;;;4.43;1.80;;;;;;;;;;5030348;28;20112;-63
2022/04/11 14:05:05;;;;;;;3.65;1.70;;;;;;;;;;5033852;28;20071;-62
2022/04/11 14:07:31;;;;;;;7.03;3.45;;;;;;;;;;5038317;28;20039;-63
2022/04/11 14:09:57;;;;;;;12.40;5.13;;;;;;;;;;5030471;28;20055;-63
2022/04/11 14:12:23;;;;;;;6.88;2.90;;;;;;;;;;5029863;28;20030;-64
2022/04/11 14:14:49;;;;;;;6.50;2.22;;;;;;;;;;5043108;28;20028;-64
2022/04/11 14:17:16;;;;;;;5.70;2.97;;;;;;;;;;5049095;28;20124;-62
2022/04/11 14:19:42;;;;;;;6.75;2.35;;;;;;;;;;5059693;28;20028;-62
2022/04/11 14:22:08;;;;;;;5.10;2.25;;;;;;;;;;5056777;28;20110;-63
2022/04/11 14:24:34;;;;;;;5.40;1.67;;;;;;;;;;5059357;28;20543;-67
2022/04/11 14:27:00;;;;;;;4.97;2.33;;;;;;;;;;5049287;28;20029;-65
2022/04/11 14:29:26;;;;;;;4.25;2.10;;;;;;;;;;5050353;28;20067;-65
2022/04/11 14:31:52;;;;;;;4.28;2.03;;;;;;;;;;5050185;28;20059;-65
2022/04/11 14:34:18;;;;;;;5.93;2.47;;;;;;;;;;5050057;28;20029;-64
2022/04/11 14:36:44;;;;;;;4.28;2.28;;;;;;;;;;5049780;28;20437;-64
2022/04/11 14:39:10;;;;;;;6.32;2.85;;;;;;;;;;5050025;28;20432;-64
2022/04/11 14:41:36;;;;;;;7.22;2.50;;;;;;;;;;5050028;28;20056;-62
2022/04/11 14:44:02;;;;;;;5.43;2.20;;;;;;;;;;5050318;28;20033;-64
2022/04/11 14:46:28;;;;;;;9.50;3.65;;;;;;;;;;5033350;28;20498;-64
2022/04/11 14:48:54;;;;;;;6.85;2.88;;;;;;;;;;5032094;28;20045;-63